Stargard Szczecinski, Poland
Current Conditions -  °F | °C
As of 9:00 AM on Sunday 23 Nov 2014 (Local Time) from EPSC Reporting Station
Light Rain Light Rain  
Wind Chill: 32°   Ceiling: Unl
Heat Index: 39°   Visibility: 2.1mi
Dew Point: 37°   Wind: 10mph
Humidity: 93%   Direction: 120°ESE
Pressure: 30.3"   Gusts: NA
Location:  53.34°N, 15.02°E
Report Text: EPSC 230700Z 12009KT 3500 -RA BR NSC 04/03 Q1026
Loading
Personal Weather Stations






























Interactive Weather Map New forecast layout! Learn more

10-Day Weather Forecast

Advertisements
Track Severe Weather on mobile